Impacts METAR Board INFO
IDs:

KPDX - Portland Intl Arpt, OR, US

Updated at: 0853 UTC 19 Nov 2017
Potential Impact None Slight Moderate High
Time18/20Z 18/21Z 18/22Z 18/23Z 19/00Z 19/01Z 19/02Z 19/03Z 19/04Z 19/05Z 19/06Z 19/07Z 19/08Z
VIS10 10 10 10 10 10 10 10 10 10 10 9 1
CIG-- 250 260 260 260 260 220 200 200 -- -- -- 2
CoverSCTBKNBKNOVCOVCOVCBKNBKNBKNFEWCLRCLROVX
FltCatVFRVFRVFRVFRVFRVFRVFRVFRVFRVFRVFRVFRLIFR
WX------------------------BR
WDir070110120120190160150180160150150200
WSpd0 4 5 8 6 4 5 6 3 6 4 4 3
WGst-- -- -- -- -- -- -- -- -- -- -- -- --
Raw hourly METARs
KPDX 181953Z 00000KT 10SM FEW015 SCT250 09/06 A3026 RMK AO2 SLP244 T00940056
KPDX 182053Z 07004KT 10SM FEW015 BKN250 11/05 A3023 RMK AO2 SLP236 T01060050 58019
KPDX 182153Z 11005KT 10SM FEW020 BKN260 11/04 A3021 RMK AO2 SLP228 T01110044
KPDX 182253Z 12008KT 10SM FEW020 OVC260 11/03 A3019 RMK AO2 SLP221 T01060028
KPDX 182353Z 12006KT 10SM SCT200 OVC260 09/03 A3019 RMK AO2 SLP223 T00940028 10117 20061 55013
KPDX 190053Z 19004KT 10SM SCT200 OVC260 08/05 A3019 RMK AO2 SLP222 T00830050
KPDX 190153Z 16005KT 10SM BKN220 07/04 A3020 RMK AO2 SLP225 T00670044
KPDX 190253Z 15006KT 10SM BKN200 06/04 A3019 RMK AO2 SLP225 T00560044 50001
KPDX 190353Z 18003KT 10SM BKN200 05/03 A3019 RMK AO2 SLP223 T00500033
KPDX 190453Z 16006KT 10SM FEW190 04/03 A3019 RMK AO2 SLP223 T00440028
KPDX 190553Z 15004KT 10SM CLR 04/03 A3018 RMK AO2 SLP219 T00390028 10094 20039 58005
KPDX 190653Z 15004KT 9SM CLR 03/03 A3017 RMK AO2 SLP215 T00330028
KPDX 190753Z 20003KT 1SM R10R/2600V4500FT BR VV002 03/03 A3018 RMK AO2 SLP219 T00330033 401170022